sensor_id;sensor_type;location;lat;lon;timestamp;pressure;altitude;pressure_sealevel;temperature;humidity
21706;BME280;11014;53.076;18.208;2023-03-04T00:03:24;101019.78;;;6.19;62.97
21706;BME280;11014;53.076;18.208;2023-03-04T00:06:01;101010.28;;;6.10;62.63
21706;BME280;11014;53.076;18.208;2023-03-04T00:08:34;101002.78;;;5.98;62.98
21706;BME280;11014;53.076;18.208;2023-03-04T00:11:43;100994.16;;;5.96;63.12
21706;BME280;11014;53.076;18.208;2023-03-04T00:15:49;100963.22;;;5.81;63.64
21706;BME280;11014;53.076;18.208;2023-03-04T00:18:31;100967.34;;;5.83;63.28
21706;BME280;11014;53.076;18.208;2023-03-04T00:21:00;100959.34;;;6.05;63.05
21706;BME280;11014;53.076;18.208;2023-03-04T00:23:39;100953.78;;;6.00;62.91
21706;BME280;11014;53.076;18.208;2023-03-04T00:26:18;100937.28;;;5.89;63.10
21706;BME280;11014;53.076;18.208;2023-03-04T00:29:37;100924.94;;;6.10;62.43
21706;BME280;11014;53.076;18.208;2023-03-04T00:32:06;100904.53;;;5.74;62.78
21706;BME280;11014;53.076;18.208;2023-03-04T00:34:44;100914.31;;;5.67;63.59
21706;BME280;11014;53.076;18.208;2023-03-04T00:37:20;100906.56;;;5.72;63.27
21706;BME280;11014;53.076;18.208;2023-03-04T00:39:51;100891.72;;;5.63;63.26
21706;BME280;11014;53.076;18.208;2023-03-04T00:42:33;100879.91;;;5.72;63.26
21706;BME280;11014;53.076;18.208;2023-03-04T00:45:34;100892.22;;;5.73;63.17
21706;BME280;11014;53.076;18.208;2023-03-04T00:49:11;100887.03;;;5.86;62.90
21706;BME280;11014;53.076;18.208;2023-03-04T00:52:14;100881.94;;;5.70;63.09
21706;BME280;11014;53.076;18.208;2023-03-04T00:54:47;100875.19;;;5.74;62.95
21706;BME280;11014;53.076;18.208;2023-03-04T00:57:28;100882.19;;;5.75;63.05
21706;BME280;11014;53.076;18.208;2023-03-04T01:00:13;100886.09;;;5.79;63.05
21706;BME280;11014;53.076;18.208;2023-03-04T01:03:03;100884.72;;;5.83;63.05
21706;BME280;11014;53.076;18.208;2023-03-04T01:05:32;100888.09;;;5.92;62.62
21706;BME280;11014;53.076;18.208;2023-03-04T01:08:03;100883.44;;;6.01;62.16
21706;BME280;11014;53.076;18.208;2023-03-04T01:10:39;100884.69;;;6.05;62.12
21706;BME280;11014;53.076;18.208;2023-03-04T01:13:44;100886.97;;;6.08;62.08
21706;BME280;11014;53.076;18.208;2023-03-04T01:16:35;100889.31;;;5.89;62.12
21706;BME280;11014;53.076;18.208;2023-03-04T01:19:16;100880.25;;;6.12;62.05
21706;BME280;11014;53.076;18.208;2023-03-04T01:21:52;100880.25;;;6.12;61.88
21706;BME280;11014;53.076;18.208;2023-03-04T01:24:49;100879.13;;;6.34;61.44
21706;BME280;11014;53.076;18.208;2023-03-04T01:27:18;100875.06;;;6.38;61.32
21706;BME280;11014;53.076;18.208;2023-03-04T01:30:01;100878.03;;;6.22;61.60
21706;BME280;11014;53.076;18.208;2023-03-04T01:33:15;100874.78;;;6.26;61.85
21706;BME280;11014;53.076;18.208;2023-03-04T01:35:44;100881.94;;;6.26;61.85
21706;BME280;11014;53.076;18.208;2023-03-04T01:41:51;100861.88;;;6.30;61.81
21706;BME280;11014;53.076;18.208;2023-03-04T01:44:53;100846.72;;;6.37;61.68
21706;BME280;11014;53.076;18.208;2023-03-04T01:47:45;100844.34;;;6.14;62.50
21706;BME280;11014;53.076;18.208;2023-03-04T01:50:45;100856.38;;;6.38;62.05
21706;BME280;11014;53.076;18.208;2023-03-04T01:53:21;100849.16;;;6.32;62.28
21706;BME280;11014;53.076;18.208;2023-03-04T02:00:44;100857.66;;;6.42;61.52
21706;BME280;11014;53.076;18.208;2023-03-04T02:03:27;100856.66;;;6.56;61.24
21706;BME280;11014;53.076;18.208;2023-03-04T02:06:13;100846.63;;;6.58;61.11
21706;BME280;11014;53.076;18.208;2023-03-04T02:08:42;100848.44;;;6.51;61.74
21706;BME280;11014;53.076;18.208;2023-03-04T02:11:19;100831.69;;;6.70;61.00
21706;BME280;11014;53.076;18.208;2023-03-04T02:13:53;100837.88;;;6.77;60.84
21706;BME280;11014;53.076;18.208;2023-03-04T02:16:25;100837.03;;;6.70;61.18
21706;BME280;11014;53.076;18.208;2023-03-04T02:19:32;100831.69;;;6.64;61.34
21706;BME280;11014;53.076;18.208;2023-03-04T02:21:59;100835.78;;;6.66;61.21
21706;BME280;11014;53.076;18.208;2023-03-04T02:24:34;100840.72;;;6.69;61.03
21706;BME280;11014;53.076;18.208;2023-03-04T02:27:07;100840.16;;;6.80;60.80
21706;BME280;11014;53.076;18.208;2023-03-04T02:29:41;100827.13;;;6.64;61.21
21706;BME280;11014;53.076;18.208;2023-03-04T02:32:44;100837.06;;;6.77;61.04
21706;BME280;11014;53.076;18.208;2023-03-04T02:35:25;100830.25;;;6.68;61.11
21706;BME280;11014;53.076;18.208;2023-03-04T02:38:15;100823.19;;;6.47;62.00
21706;BME280;11014;53.076;18.208;2023-03-04T02:40:47;100820.19;;;6.70;61.46
21706;BME280;11014;53.076;18.208;2023-03-04T02:43:20;100823.88;;;6.75;61.10
21706;BME280;11014;53.076;18.208;2023-03-04T02:45:52;100821.03;;;6.83;60.85
21706;BME280;11014;53.076;18.208;2023-03-04T02:48:34;100842.19;;;6.78;60.73
21706;BME280;11014;53.076;18.208;2023-03-04T02:51:21;100814.09;;;6.95;60.59
21706;BME280;11014;53.076;18.208;2023-03-04T02:53:49;100812.03;;;6.97;60.66
21706;BME280;11014;53.076;18.208;2023-03-04T02:56:26;100804.63;;;6.86;60.57
21706;BME280;11014;53.076;18.208;2023-03-04T02:59:09;100822.91;;;6.89;60.58
21706;BME280;11014;53.076;18.208;2023-03-04T03:01:51;100799.06;;;6.81;60.85
21706;BME280;11014;53.076;18.208;2023-03-04T03:04:30;100810.59;;;6.88;60.80
21706;BME280;11014;53.076;18.208;2023-03-04T03:07:11;100821.00;;;6.70;60.96
21706;BME280;11014;53.076;18.208;2023-03-04T03:10:32;100807.88;;;6.75;61.25
21706;BME280;11014;53.076;18.208;2023-03-04T03:13:42;100795.78;;;6.79;61.42
21706;BME280;11014;53.076;18.208;2023-03-04T03:16:21;100797.25;;;6.95;60.75
21706;BME280;11014;53.076;18.208;2023-03-04T03:19:00;100801.16;;;6.92;60.72
21706;BME280;11014;53.076;18.208;2023-03-04T03:21:31;100795.63;;;7.00;60.33
21706;BME280;11014;53.076;18.208;2023-03-04T03:24:07;100787.00;;;6.98;60.22
21706;BME280;11014;53.076;18.208;2023-03-04T03:26:36;100779.63;;;7.07;60.11
21706;BME280;11014;53.076;18.208;2023-03-04T03:29:28;100780.00;;;7.10;60.22
21706;BME280;11014;53.076;18.208;2023-03-04T03:32:22;100795.22;;;7.03;60.23
21706;BME280;11014;53.076;18.208;2023-03-04T03:35:03;100793.13;;;6.92;60.54
21706;BME280;11014;53.076;18.208;2023-03-04T03:37:34;100773.44;;;7.06;60.41
21706;BME280;11014;53.076;18.208;2023-03-04T03:40:06;100805.06;;;6.96;60.38
21706;BME280;11014;53.076;18.208;2023-03-04T03:42:37;100777.16;;;7.12;59.92
21706;BME280;11014;53.076;18.208;2023-03-04T03:45:29;100792.75;;;6.95;60.20
21706;BME280;11014;53.076;18.208;2023-03-04T03:48:22;100781.00;;;6.90;60.51
21706;BME280;11014;53.076;18.208;2023-03-04T03:50:52;100780.00;;;7.10;59.94
21706;BME280;11014;53.076;18.208;2023-03-04T03:53:24;100784.53;;;7.16;59.85
21706;BME280;11014;53.076;18.208;2023-03-04T03:55:59;100780.03;;;7.24;59.69
21706;BME280;11014;53.076;18.208;2023-03-04T03:58:36;100771.78;;;7.18;59.85
21706;BME280;11014;53.076;18.208;2023-03-04T04:01:32;100786.38;;;6.96;60.01
21706;BME280;11014;53.076;18.208;2023-03-04T04:04:16;100773.84;;;7.03;60.23
21706;BME280;11014;53.076;18.208;2023-03-04T04:06:54;100780.44;;;7.14;59.80
21706;BME280;11014;53.076;18.208;2023-03-04T04:09:25;100781.06;;;7.09;60.19
21706;BME280;11014;53.076;18.208;2023-03-04T04:11:55;100779.63;;;7.07;60.06
21706;BME280;11014;53.076;18.208;2023-03-04T04:14:24;100795.22;;;7.03;60.52
21706;BME280;11014;53.076;18.208;2023-03-04T04:16:58;100781.03;;;7.03;60.38
21706;BME280;11014;53.076;18.208;2023-03-04T04:19:27;100774.28;;;7.07;60.55
21706;BME280;11014;53.076;18.208;2023-03-04T04:22:02;100776.31;;;7.11;60.00
21706;BME280;11014;53.076;18.208;2023-03-04T04:24:31;100781.47;;;7.06;60.20
21706;BME280;11014;53.076;18.208;2023-03-04T04:27:16;100799.72;;;7.03;60.41
21706;BME280;11014;53.076;18.208;2023-03-04T04:30:12;100772.84;;;7.04;60.60
21706;BME280;11014;53.076;18.208;2023-03-04T04:33:01;100763.56;;;7.00;60.57
21706;BME280;11014;53.076;18.208;2023-03-04T04:35:49;100765.41;;;7.00;60.61
21706;BME280;11014;53.076;18.208;2023-03-04T04:38:19;100763.16;;;7.16;60.01
21706;BME280;11014;53.076;18.208;2023-03-04T04:40:50;100762.56;;;7.28;60.55
21706;BME280;11014;53.076;18.208;2023-03-04T04:43:22;100757.44;;;7.20;60.09
21706;BME280;11014;53.076;18.208;2023-03-04T04:46:20;100762.97;;;6.98;60.55
21706;BME280;11014;53.076;18.208;2023-03-04T04:49:24;100753.94;;;7.12;60.17
21706;BME280;11014;53.076;18.208;2023-03-04T04:51:52;100745.09;;;7.12;60.63
21706;BME280;11014;53.076;18.208;2023-03-04T04:54:28;100745.28;;;6.97;60.82
21706;BME280;11014;53.076;18.208;2023-03-04T04:56:56;100743.88;;;7.01;60.81
21706;BME280;11014;53.076;18.208;2023-03-04T04:59:25;100739.97;;;7.04;60.35
21706;BME280;11014;53.076;18.208;2023-03-04T05:02:08;100751.69;;;7.09;60.58
21706;BME280;11014;53.076;18.208;2023-03-04T05:04:58;100735.03;;;7.07;60.71
21706;BME280;11014;53.076;18.208;2023-03-04T05:07:38;100741.81;;;7.16;60.33
21706;BME280;11014;53.076;18.208;2023-03-04T05:10:38;100737.50;;;7.15;60.24
21706;BME280;11014;53.076;18.208;2023-03-04T05:13:19;100727.44;;;7.18;60.28
21706;BME280;11014;53.076;18.208;2023-03-04T05:16:02;100724.13;;;6.96;60.76
21706;BME280;11014;53.076;18.208;2023-03-04T05:18:42;100727.03;;;7.07;60.74
21706;BME280;11014;53.076;18.208;2023-03-04T05:21:14;100716.53;;;7.19;60.71
21706;BME280;11014;53.076;18.208;2023-03-04T05:23:43;100727.22;;;7.12;60.75
21706;BME280;11014;53.076;18.208;2023-03-04T05:26:14;100717.97;;;7.22;60.44
21706;BME280;11014;53.076;18.208;2023-03-04T05:28:54;100714.28;;;7.09;60.63
21706;BME280;11014;53.076;18.208;2023-03-04T05:31:27;100720.03;;;7.20;60.42
21706;BME280;11014;53.076;18.208;2023-03-04T05:34:01;100727.81;;;7.28;60.59
21706;BME280;11014;53.076;18.208;2023-03-04T05:36:32;100725.56;;;7.25;60.28
21706;BME280;11014;53.076;18.208;2023-03-04T05:39:02;100713.03;;;7.18;60.68
21706;BME280;11014;53.076;18.208;2023-03-04T05:41:35;100723.72;;;7.18;60.65
21706;BME280;11014;53.076;18.208;2023-03-04T05:44:04;100727.44;;;7.18;61.02
21706;BME280;11014;53.076;18.208;2023-03-04T05:46:35;100727.41;;;7.11;61.39
21706;BME280;11014;53.076;18.208;2023-03-04T05:49:04;100726.59;;;7.10;61.29
21706;BME280;11014;53.076;18.208;2023-03-04T05:51:40;100728.88;;;7.27;61.00
21706;BME280;11014;53.076;18.208;2023-03-04T05:54:13;100725.97;;;7.22;61.10
21706;BME280;11014;53.076;18.208;2023-03-04T05:57:05;100734.63;;;7.24;61.37
21706;BME280;11014;53.076;18.208;2023-03-04T05:59:33;100734.63;;;7.24;61.48
21706;BME280;11014;53.076;18.208;2023-03-04T06:02:03;100726.19;;;7.20;61.50
21706;BME280;11014;53.076;18.208;2023-03-04T06:04:32;100731.53;;;7.13;61.56
21706;BME280;11014;53.076;18.208;2023-03-04T06:07:01;100734.41;;;7.32;61.49
21706;BME280;11014;53.076;18.208;2023-03-04T06:09:35;100726.19;;;7.27;61.26
21706;BME280;11014;53.076;18.208;2023-03-04T06:12:08;100727.41;;;7.31;61.46
21706;BME280;11014;53.076;18.208;2023-03-04T06:14:36;100719.63;;;7.29;61.66
21706;BME280;11014;53.076;18.208;2023-03-04T06:17:13;100716.72;;;7.31;61.62
21706;BME280;11014;53.076;18.208;2023-03-04T06:19:43;100719.63;;;7.09;62.35
21706;BME280;11014;53.076;18.208;2023-03-04T06:22:21;100718.78;;;7.29;61.91
21706;BME280;11014;53.076;18.208;2023-03-04T06:24:49;100720.44;;;7.36;61.94
21706;BME280;11014;53.076;18.208;2023-03-04T06:27:22;100724.13;;;7.42;61.76
21706;BME280;11014;53.076;18.208;2023-03-04T06:29:50;100715.53;;;7.27;62.41
21706;BME280;11014;53.076;18.208;2023-03-04T06:32:19;100713.88;;;7.12;62.34
21706;BME280;11014;53.076;18.208;2023-03-04T06:34:48;100716.31;;;7.34;62.12
21706;BME280;11014;53.076;18.208;2023-03-04T06:37:20;100716.72;;;7.44;62.17
21706;BME280;11014;53.076;18.208;2023-03-04T06:39:49;100716.09;;;7.42;61.62
21706;BME280;11014;53.076;18.208;2023-03-04T06:42:18;100717.13;;;7.41;61.70
21706;BME280;11014;53.076;18.208;2023-03-04T06:44:48;100718.78;;;7.48;61.87
21706;BME280;11014;53.076;18.208;2023-03-04T06:47:18;100733.16;;;7.54;61.75
21706;BME280;11014;53.076;18.208;2023-03-04T06:50:07;100719.38;;;7.50;61.63
21706;BME280;11014;53.076;18.208;2023-03-04T06:52:39;100726.38;;;7.38;62.51
21706;BME280;11014;53.076;18.208;2023-03-04T06:55:08;100726.34;;;7.58;62.23
21706;BME280;11014;53.076;18.208;2023-03-04T06:57:40;100718.78;;;7.42;62.30
21706;BME280;11014;53.076;18.208;2023-03-04T07:00:10;100724.13;;;7.42;62.41
21706;BME280;11014;53.076;18.208;2023-03-04T07:02:44;100729.66;;;7.53;62.20
21706;BME280;11014;53.076;18.208;2023-03-04T07:05:15;100722.03;;;7.63;61.58
21706;BME280;11014;53.076;18.208;2023-03-04T07:07:44;100738.47;;;7.73;61.33
21706;BME280;11014;53.076;18.208;2023-03-04T07:10:18;100731.06;;;7.69;61.49
21706;BME280;11014;53.076;18.208;2023-03-04T07:12:48;100719.97;;;7.65;62.08
21706;BME280;11014;53.076;18.208;2023-03-04T07:15:43;100726.31;;;7.71;61.98
21706;BME280;11014;53.076;18.208;2023-03-04T07:18:26;100724.53;;;7.39;62.54
21706;BME280;11014;53.076;18.208;2023-03-04T07:21:01;100724.53;;;7.39;63.10
21706;BME280;11014;53.076;18.208;2023-03-04T07:23:30;100724.53;;;7.45;62.98
21706;BME280;11014;53.076;18.208;2023-03-04T07:25:59;100726.34;;;7.58;63.24
21706;BME280;11014;53.076;18.208;2023-03-04T07:28:28;100720.59;;;7.61;63.19
21706;BME280;11014;53.076;18.208;2023-03-04T07:31:08;100721.63;;;7.60;63.49
21706;BME280;11014;53.076;18.208;2023-03-04T07:33:51;100715.25;;;7.67;63.23
21706;BME280;11014;53.076;18.208;2023-03-04T07:36:21;100715.47;;;7.59;63.47
21706;BME280;11014;53.076;18.208;2023-03-04T07:38:51;100715.84;;;7.63;63.91
21706;BME280;11014;53.076;18.208;2023-03-04T07:41:24;100713.00;;;7.51;64.74
21706;BME280;11014;53.076;18.208;2023-03-04T07:43:56;100702.75;;;7.42;65.20
21706;BME280;11014;53.076;18.208;2023-03-04T07:46:25;100694.09;;;7.53;65.39
21706;BME280;11014;53.076;18.208;2023-03-04T07:49:07;100697.00;;;7.45;65.69
21706;BME280;11014;53.076;18.208;2023-03-04T07:51:48;100702.13;;;7.53;65.46
21706;BME280;11014;53.076;18.208;2023-03-04T07:54:19;100690.41;;;7.54;65.25
21706;BME280;11014;53.076;18.208;2023-03-04T07:57:14;100689.56;;;7.47;65.35
21706;BME280;11014;53.076;18.208;2023-03-04T07:59:58;100694.69;;;7.61;65.40
21706;BME280;11014;53.076;18.208;2023-03-04T08:02:57;100688.28;;;7.62;65.17
21706;BME280;11014;53.076;18.208;2023-03-04T08:05:29;100694.25;;;7.71;64.76
21706;BME280;11014;53.076;18.208;2023-03-04T08:07:57;100690.00;;;7.50;65.59
21706;BME280;11014;53.076;18.208;2023-03-04T08:10:49;100699.81;;;7.63;65.53
21706;BME280;11014;53.076;18.208;2023-03-04T08:13:58;100688.09;;;7.64;65.11
21706;BME280;11014;53.076;18.208;2023-03-04T08:17:42;100676.78;;;7.68;65.31
21706;BME280;11014;53.076;18.208;2023-03-04T08:20:13;100679.63;;;7.80;65.24
21706;BME280;11014;53.076;18.208;2023-03-04T08:22:44;100672.63;;;7.79;65.21
21706;BME280;11014;53.076;18.208;2023-03-04T08:25:13;100678.56;;;7.88;65.21
21706;BME280;11014;53.076;18.208;2023-03-04T08:27:41;100667.25;;;7.86;65.02
21706;BME280;11014;53.076;18.208;2023-03-04T08:30:10;100670.97;;;7.85;65.38
21706;BME280;11014;53.076;18.208;2023-03-04T08:32:39;100670.75;;;7.86;65.49
21706;BME280;11014;53.076;18.208;2023-03-04T08:35:08;100671.38;;;7.88;66.40
21706;BME280;11014;53.076;18.208;2023-03-04T08:37:39;100664.38;;;7.87;66.75
21706;BME280;11014;53.076;18.208;2023-03-04T08:40:12;100659.06;;;7.74;67.76
21706;BME280;11014;53.076;18.208;2023-03-04T08:42:43;100660.72;;;7.75;68.19
21706;BME280;11014;53.076;18.208;2023-03-04T08:45:12;100660.69;;;7.82;68.40
21706;BME280;11014;53.076;18.208;2023-03-04T08:47:43;100664.41;;;7.74;68.66
21706;BME280;11014;53.076;18.208;2023-03-04T08:50:13;100659.91;;;7.68;69.42
21706;BME280;11014;53.076;18.208;2023-03-04T08:52:42;100659.94;;;7.61;69.98
21706;BME280;11014;53.076;18.208;2023-03-04T08:55:11;100660.34;;;7.65;70.68
21706;BME280;11014;53.076;18.208;2023-03-04T08:57:40;100649.66;;;7.58;71.05
21706;BME280;11014;53.076;18.208;2023-03-04T09:00:21;100656.63;;;7.66;71.48
21706;BME280;11014;53.076;18.208;2023-03-04T09:03:15;100657.47;;;7.66;71.52
21706;BME280;11014;53.076;18.208;2023-03-04T09:07:02;100670.03;;;7.59;71.64
21706;BME280;11014;53.076;18.208;2023-03-04T09:09:53;100676.59;;;7.57;72.00
21706;BME280;11014;53.076;18.208;2023-03-04T09:12:53;100674.78;;;7.51;72.39
21706;BME280;11014;53.076;18.208;2023-03-04T09:17:06;100671.09;;;7.39;72.54
21706;BME280;11014;53.076;18.208;2023-03-04T09:20:22;100674.38;;;7.41;73.00
21706;BME280;11014;53.076;18.208;2023-03-04T09:22:50;100673.53;;;7.47;73.27
21706;BME280;11014;53.076;18.208;2023-03-04T09:25:20;100685.47;;;7.44;73.48
21706;BME280;11014;53.076;18.208;2023-03-04T09:27:52;100684.66;;;7.37;73.93
21706;BME280;11014;53.076;18.208;2023-03-04T09:30:23;100701.53;;;7.25;74.54
21706;BME280;11014;53.076;18.208;2023-03-04T09:32:59;100690.81;;;7.38;74.29
21706;BME280;11014;53.076;18.208;2023-03-04T09:35:29;100691.66;;;7.32;74.49
21706;BME280;11014;53.076;18.208;2023-03-04T09:37:58;100688.34;;;7.30;74.86
21706;BME280;11014;53.076;18.208;2023-03-04T09:40:47;100691.25;;;7.35;75.13
21706;BME280;11014;53.076;18.208;2023-03-04T09:43:24;100680.97;;;7.25;74.17
21706;BME280;11014;53.076;18.208;2023-03-04T09:46:00;100675.66;;;7.12;73.05
21706;BME280;11014;53.076;18.208;2023-03-04T09:48:56;100683.00;;;7.30;73.08
21706;BME280;11014;53.076;18.208;2023-03-04T09:51:54;100675.63;;;7.32;73.33
21706;BME280;11014;53.076;18.208;2023-03-04T09:54:55;100672.75;;;7.40;73.36
21706;BME280;11014;53.076;18.208;2023-03-04T10:00:38;100671.88;;;7.52;72.32
21706;BME280;11014;53.076;18.208;2023-03-04T10:03:24;100670.44;;;7.50;71.29
21706;BME280;11014;53.076;18.208;2023-03-04T10:06:03;100668.19;;;7.47;70.39
21706;BME280;11014;53.076;18.208;2023-03-04T10:08:56;100664.91;;;7.45;69.77
21706;BME280;11014;53.076;18.208;2023-03-04T10:11:31;100674.38;;;7.54;69.28
21706;BME280;11014;53.076;18.208;2023-03-04T10:14:22;100670.63;;;7.61;69.40
21706;BME280;11014;53.076;18.208;2023-03-04T10:17:15;100675.16;;;7.61;68.56
21706;BME280;11014;53.076;18.208;2023-03-04T10:20:11;100669.41;;;7.64;67.97
21706;BME280;11014;53.076;18.208;2023-03-04T10:22:52;100664.03;;;7.64;67.48
21706;BME280;11014;53.076;18.208;2023-03-04T10:25:31;100678.44;;;7.69;66.92
21706;BME280;11014;53.076;18.208;2023-03-04T10:28:14;100665.66;;;7.71;66.11
21706;BME280;11014;53.076;18.208;2023-03-04T10:33:30;100676.72;;;7.88;65.21
21706;BME280;11014;53.076;18.208;2023-03-04T10:38:43;100663.66;;;8.11;65.09
21706;BME280;11014;53.076;18.208;2023-03-04T10:41:20;100670.56;;;8.25;64.97
21706;BME280;11014;53.076;18.208;2023-03-04T10:46:48;100664.75;;;8.42;63.88
21706;BME280;11014;53.076;18.208;2023-03-04T10:49:19;100661.34;;;8.59;63.70
21706;BME280;11014;53.076;18.208;2023-03-04T10:52:28;100663.09;;;8.72;63.24
21706;BME280;11014;53.076;18.208;2023-03-04T10:54:59;100673.34;;;8.81;62.50
21706;BME280;11014;53.076;18.208;2023-03-04T10:57:32;100660.56;;;9.08;61.87
21706;BME280;11014;53.076;18.208;2023-03-04T11:02:34;100663.94;;;8.97;61.77
21706;BME280;11014;53.076;18.208;2023-03-04T11:07:50;100660.28;;;9.16;61.09
21706;BME280;11014;53.076;18.208;2023-03-04T11:10:31;100669.09;;;9.23;59.64
21706;BME280;11014;53.076;18.208;2023-03-04T11:18:33;100684.31;;;9.84;57.15
21706;BME280;11014;53.076;18.208;2023-03-04T11:21:06;100687.06;;;9.95;53.76
21706;BME280;11014;53.076;18.208;2023-03-04T11:23:57;100689.06;;;10.00;46.25
21706;BME280;11014;53.076;18.208;2023-03-04T11:26:34;100685.06;;;9.91;42.68
21706;BME280;11014;53.076;18.208;2023-03-04T11:29:24;100684.00;;;10.10;42.51
21706;BME280;11014;53.076;18.208;2023-03-04T11:37:30;100685.59;;;10.47;40.49
21706;BME280;11014;53.076;18.208;2023-03-04T11:40:04;100690.28;;;10.52;38.97
21706;BME280;11014;53.076;18.208;2023-03-04T11:42:55;100692.88;;;10.58;38.61
21706;BME280;11014;53.076;18.208;2023-03-04T11:45:46;100679.00;;;10.61;37.83
21706;BME280;11014;53.076;18.208;2023-03-04T11:50:57;100698.38;;;10.63;37.05
21706;BME280;11014;53.076;18.208;2023-03-04T11:53:53;100694.53;;;10.59;36.87
21706;BME280;11014;53.076;18.208;2023-03-04T11:56:41;100696.78;;;10.74;37.60
21706;BME280;11014;53.076;18.208;2023-03-04T12:02:14;100689.38;;;10.58;36.00
21706;BME280;11014;53.076;18.208;2023-03-04T12:05:10;100696.94;;;10.79;36.75
21706;BME280;11014;53.076;18.208;2023-03-04T12:07:56;100695.50;;;10.77;36.20
21706;BME280;11014;53.076;18.208;2023-03-04T12:13:27;100703.03;;;10.98;35.41
21706;BME280;11014;53.076;18.208;2023-03-04T12:18:49;100705.84;;;11.03;35.66
21706;BME280;11014;53.076;18.208;2023-03-04T12:24:26;100705.28;;;11.24;34.38
21706;BME280;11014;53.076;18.208;2023-03-04T12:27:20;100699.00;;;11.42;33.56
21706;BME280;11014;53.076;18.208;2023-03-04T12:35:44;100709.63;;;11.48;33.20
21706;BME280;11014;53.076;18.208;2023-03-04T12:38:24;100709.97;;;11.86;33.06
21706;BME280;11014;53.076;18.208;2023-03-04T12:46:36;100707.03;;;14.27;29.14
21706;BME280;11014;53.076;18.208;2023-03-04T12:52:01;100712.56;;;13.39;29.03
21706;BME280;11014;53.076;18.208;2023-03-04T12:54:35;100717.03;;;13.00;28.84
21706;BME280;11014;53.076;18.208;2023-03-04T12:57:19;100724.22;;;12.78;28.59
21706;BME280;11014;53.076;18.208;2023-03-04T13:05:43;100713.69;;;15.54;24.52
21706;BME280;11014;53.076;18.208;2023-03-04T13:08:25;100730.22;;;16.04;24.05
21706;BME280;11014;53.076;18.208;2023-03-04T13:16:40;100716.97;;;17.30;20.68
21706;BME280;11014;53.076;18.208;2023-03-04T13:19:41;100720.25;;;17.02;20.72
21706;BME280;11014;53.076;18.208;2023-03-04T13:36:32;100725.88;;;17.91;20.06
21706;BME280;11014;53.076;18.208;2023-03-04T13:39:27;100721.22;;;17.97;19.02
21706;BME280;11014;53.076;18.208;2023-03-04T13:41:56;100726.09;;;18.05;19.27
21706;BME280;11014;53.076;18.208;2023-03-04T13:47:29;100731.59;;;16.89;19.94
21706;BME280;11014;53.076;18.208;2023-03-04T13:50:39;100723.16;;;16.70;20.35
21706;BME280;11014;53.076;18.208;2023-03-04T13:53:41;100711.44;;;16.49;20.59
21706;BME280;11014;53.076;18.208;2023-03-04T13:56:27;100734.34;;;17.04;19.83
21706;BME280;11014;53.076;18.208;2023-03-04T14:04:39;100712.63;;;17.44;19.52
21706;BME280;11014;53.076;18.208;2023-03-04T14:10:04;100722.66;;;17.08;19.90
21706;BME280;11014;53.076;18.208;2023-03-04T14:12:40;100716.69;;;16.96;20.21
21706;BME280;11014;53.076;18.208;2023-03-04T14:17:54;100713.34;;;15.87;20.69
21706;BME280;11014;53.076;18.208;2023-03-04T14:20:31;100731.66;;;15.06;21.83
21706;BME280;11014;53.076;18.208;2023-03-04T14:23:03;100723.88;;;14.83;22.24
21706;BME280;11014;53.076;18.208;2023-03-04T14:25:34;100727.25;;;14.68;22.39
21706;BME280;11014;53.076;18.208;2023-03-04T14:28:08;100728.84;;;14.64;22.22
21706;BME280;11014;53.076;18.208;2023-03-04T14:30:38;100716.19;;;14.26;23.06
21706;BME280;11014;53.076;18.208;2023-03-04T14:33:16;100723.06;;;14.12;23.24
21706;BME280;11014;53.076;18.208;2023-03-04T14:35:49;100711.34;;;13.85;23.64
21706;BME280;11014;53.076;18.208;2023-03-04T14:38:24;100730.88;;;13.54;23.56
21706;BME280;11014;53.076;18.208;2023-03-04T14:41:10;100699.69;;;13.08;24.10
21706;BME280;11014;53.076;18.208;2023-03-04T14:43:53;100733.88;;;12.63;24.32
21706;BME280;11014;53.076;18.208;2023-03-04T14:46:25;100731.97;;;12.35;25.04
21706;BME280;11014;53.076;18.208;2023-03-04T14:48:57;100747.53;;;12.05;25.40
21706;BME280;11014;53.076;18.208;2023-03-04T14:51:34;100736.31;;;11.73;25.03
21706;BME280;11014;53.076;18.208;2023-03-04T14:54:04;100731.66;;;11.04;25.87
21706;BME280;11014;53.076;18.208;2023-03-04T14:56:34;100756.06;;;10.91;25.49
21706;BME280;11014;53.076;18.208;2023-03-04T14:59:03;100747.47;;;10.70;26.12
21706;BME280;11014;53.076;18.208;2023-03-04T15:01:33;100746.16;;;10.61;26.16
21706;BME280;11014;53.076;18.208;2023-03-04T15:04:05;100764.06;;;10.49;26.16
21706;BME280;11014;53.076;18.208;2023-03-04T15:06:38;100752.31;;;10.32;26.52
21706;BME280;11014;53.076;18.208;2023-03-04T15:09:20;100752.25;;;10.21;26.43
21706;BME280;11014;53.076;18.208;2023-03-04T15:11:52;100763.84;;;9.96;26.90
21706;BME280;11014;53.076;18.208;2023-03-04T15:14:48;100754.91;;;9.41;27.16
21706;BME280;11014;53.076;18.208;2023-03-04T15:17:38;100757.88;;;9.51;26.88
21706;BME280;11014;53.076;18.208;2023-03-04T15:25:36;100774.91;;;9.64;26.43
21706;BME280;11014;53.076;18.208;2023-03-04T15:28:05;100779.63;;;9.43;26.50
21706;BME280;11014;53.076;18.208;2023-03-04T15:30:39;100796.56;;;9.37;26.61
21706;BME280;11014;53.076;18.208;2023-03-04T15:33:12;100783.78;;;9.15;26.86
21706;BME280;11014;53.076;18.208;2023-03-04T15:35:40;100799.28;;;9.06;27.59
21706;BME280;11014;53.076;18.208;2023-03-04T15:38:13;100799.41;;;8.86;27.88
21706;BME280;11014;53.076;18.208;2023-03-04T15:40:41;100797.88;;;8.66;27.64
21706;BME280;11014;53.076;18.208;2023-03-04T15:43:31;100801.97;;;8.68;28.22
21706;BME280;11014;53.076;18.208;2023-03-04T15:46:00;100809.59;;;8.71;28.54